Flight ASXV42

  • Submitted By: Kacper Kosiorek
  • Departure Airport: Dublin (EIDW)
  • Arrival Airport: Dublin (EIDW)
  • Aircraft: C 172 (SP-OJL)
  • Flight Time: 00.42.37
  • Date Submitted: 09/12/2017
  • Route: TRAFFIC PATTERN
  • Status: Accepted
Flight Details
Gross Revenue:
(3 load / € 0.00 per unit
€ 0.00
Fuel Cost:
(6.80389 fuel used @ 0.45 / unit)
€ 3.06

Additional Log Information:

View Log

[23:35] - Cessna Skyhawk 172SP Paint4
[23:35] - Flight ASXV42 is ready to depart EIDW with a final destination of EIDW.
[23:35] - Parking Brake Applied
[23:35] - Boarding
[23:35] - ADF1 - 284.0
[23:35] - ADF2 - 240.0
[23:35] - NAV1 - 113.70
[23:35] - NAV2 - 110.60
[23:35] - COM1 - 128.30
[23:35] - COM2 - 127.80
[23:35] - Transponder - 1200
[23:35] - Transponder - 7000
[23:36] - Engine 1 Started
[23:37] - COM1 - 122.80
[23:37] - Beacon Light ON 3AGL
[23:37] - Navigation Lights ON 3AGL
[23:37] - Strobe Lights ON 3AGL
[23:39] - Taxi Lights ON 3AGL
[23:39] - Parking Brake Released
[23:40] - Taxiing to Runway
[23:41] - Flaps to position 1
[23:49] - Landing Lights ON 3AGL
[23:50] - Taking Off with 3 passengers on board
[23:50] - Take off at 81kts, with a pitch of 0deg and 34kgs of fuel on board
[23:50] - Wind Heading 270 | Wind Speed 14kts | Temperature 11 deg C
[23:50] - METAR Departure: EIDW 112130Z 26014KT 9999 FEW022 SCT090 11/09 Q1002 NOSIG

[23:51] - Flaps to position 0 at 417ft and 87kts
[23:51] - Climbing to TOC
[23:52] - TOC reached
[23:52] - Cruise started
[00:05] - Flaps to position 1 at 1106ft and 90kts
[00:05] - Flaps to position 2 at 1106ft and 90kts
[00:06] - Flaps to position 1 at 1053ft and 67kts
[00:06] - Flaps to position 2 at 630ft and 72kts
[00:07] - Landed at -129fpm. With 29kgs of fuel onboard and a pitch angle of 8deg.
[00:07] - Wind Heading 260 | Wind Speed 12kts | Temperature 11 deg C
[00:07] - METAR Arrival: EIDW 112130Z 26014KT 9999 FEW022 SCT090 11/09 Q1002 NOSIG

[00:07] - Taxiing to Gate
[00:08] - Flaps to position 0
[00:09] - Taxi Lights OFF 3AGL
[00:17] - Landing Lights OFF 3AGL
[00:17] - Beacon Lights OFF 3AGL
[00:17] - Navigation Lights OFF 3AGL
[00:17] - Strobe Lights OFF 3AGL
[00:17] - Parking Brake Applied
[00:17] - Arrived safely at EIDW. We hope you enjoyed your flight!
[00:17] - Engine 1 Stopped
[00:17] - Cessna Skyhawk 172SP Paint4
[00:17] - MaxSim Rate: 1x
[00:17] - SiouxAcars ver: 1.0.1.2

Route Map